sensor_id;sensor_type;location;lat;lon;timestamp;P1;P2;P0
28026;PMS5003;15344;52.342;-1.290;2023-02-28T00:00:15;6;5;
28026;PMS5003;15344;52.342;-1.290;2023-02-28T00:02:41;8;6;
28026;PMS5003;15344;52.342;-1.290;2023-02-28T00:05:07;5;5;
28026;PMS5003;15344;52.342;-1.290;2023-02-28T00:07:32;5;5;
28026;PMS5003;15344;52.342;-1.290;2023-02-28T00:09:57;3;3;
28026;PMS5003;15344;52.342;-1.290;2023-02-28T00:12:23;7;5;
28026;PMS5003;15344;52.342;-1.290;2023-02-28T00:14:49;5;5;
28026;PMS5003;15344;52.342;-1.290;2023-02-28T00:17:14;7;4;
28026;PMS5003;15344;52.342;-1.290;2023-02-28T00:19:39;7;4;
28026;PMS5003;15344;52.342;-1.290;2023-02-28T00:22:05;6;6;
28026;PMS5003;15344;52.342;-1.290;2023-02-28T00:24:31;8;8;
28026;PMS5003;15344;52.342;-1.290;2023-02-28T00:26:57;6;5;
28026;PMS5003;15344;52.342;-1.290;2023-02-28T00:29:22;6;5;
28026;PMS5003;15344;52.342;-1.290;2023-02-28T00:31:47;5;5;
28026;PMS5003;15344;52.342;-1.290;2023-02-28T00:34:12;6;6;
28026;PMS5003;15344;52.342;-1.290;2023-02-28T00:36:38;6;6;
28026;PMS5003;15344;52.342;-1.290;2023-02-28T00:39:04;8;6;
28026;PMS5003;15344;52.342;-1.290;2023-02-28T00:41:29;6;6;
28026;PMS5003;15344;52.342;-1.290;2023-02-28T00:43:55;7;6;
28026;PMS5003;15344;52.342;-1.290;2023-02-28T00:46:20;7;5;
28026;PMS5003;15344;52.342;-1.290;2023-02-28T00:48:46;6;6;
28026;PMS5003;15344;52.342;-1.290;2023-02-28T00:51:11;4;4;
28026;PMS5003;15344;52.342;-1.290;2023-02-28T00:53:37;5;4;
28026;PMS5003;15344;52.342;-1.290;2023-02-28T00:56:02;5;5;
28026;PMS5003;15344;52.342;-1.290;2023-02-28T00:58:28;5;5;
28026;PMS5003;15344;52.342;-1.290;2023-02-28T01:00:53;6;5;
28026;PMS5003;15344;52.342;-1.290;2023-02-28T01:03:20;7;7;
28026;PMS5003;15344;52.342;-1.290;2023-02-28T01:05:45;9;7;
28026;PMS5003;15344;52.342;-1.290;2023-02-28T01:08:10;6;6;
28026;PMS5003;15344;52.342;-1.290;2023-02-28T01:10:35;8;6;
28026;PMS5003;15344;52.342;-1.290;2023-02-28T01:13:01;8;7;
28026;PMS5003;15344;52.342;-1.290;2023-02-28T01:15:26;8;8;
28026;PMS5003;15344;52.342;-1.290;2023-02-28T01:17:51;9;8;
28026;PMS5003;15344;52.342;-1.290;2023-02-28T01:20:17;11;10;
28026;PMS5003;15344;52.342;-1.290;2023-02-28T01:22:42;8;7;
28026;PMS5003;15344;52.342;-1.290;2023-02-28T01:25:08;10;10;
28026;PMS5003;15344;52.342;-1.290;2023-02-28T01:27:33;12;10;
28026;PMS5003;15344;52.342;-1.290;2023-02-28T01:29:59;14;12;
28026;PMS5003;15344;52.342;-1.290;2023-02-28T01:32:24;10;9;
28026;PMS5003;15344;52.342;-1.290;2023-02-28T01:34:50;11;8;
28026;PMS5003;15344;52.342;-1.290;2023-02-28T01:37:15;11;8;
28026;PMS5003;15344;52.342;-1.290;2023-02-28T01:39:41;12;8;
28026;PMS5003;15344;52.342;-1.290;2023-02-28T01:42:08;8;8;
28026;PMS5003;15344;52.342;-1.290;2023-02-28T01:46:58;12;11;
28026;PMS5003;15344;52.342;-1.290;2023-02-28T01:49:23;7;7;
28026;PMS5003;15344;52.342;-1.290;2023-02-28T01:51:49;10;10;
28026;PMS5003;15344;52.342;-1.290;2023-02-28T01:54:14;8;8;
28026;PMS5003;15344;52.342;-1.290;2023-02-28T01:56:40;8;7;
28026;PMS5003;15344;52.342;-1.290;2023-02-28T01:59:04;7;7;
28026;PMS5003;15344;52.342;-1.290;2023-02-28T02:01:30;13;11;
28026;PMS5003;15344;52.342;-1.290;2023-02-28T02:03:55;12;9;
28026;PMS5003;15344;52.342;-1.290;2023-02-28T02:06:21;8;8;
28026;PMS5003;15344;52.342;-1.290;2023-02-28T02:08:46;9;9;
28026;PMS5003;15344;52.342;-1.290;2023-02-28T02:11:11;10;10;
28026;PMS5003;15344;52.342;-1.290;2023-02-28T02:13:40;9;9;
28026;PMS5003;15344;52.342;-1.290;2023-02-28T02:16:04;14;12;
28026;PMS5003;15344;52.342;-1.290;2023-02-28T02:18:29;9;9;
28026;PMS5003;15344;52.342;-1.290;2023-02-28T02:23:23;11;10;
28026;PMS5003;15344;52.342;-1.290;2023-02-28T02:25:44;11;8;
28026;PMS5003;15344;52.342;-1.290;2023-02-28T02:28:16;10;10;
28026;PMS5003;15344;52.342;-1.290;2023-02-28T02:33:05;9;9;
28026;PMS5003;15344;52.342;-1.290;2023-02-28T02:35:25;12;11;
28026;PMS5003;15344;52.342;-1.290;2023-02-28T02:37:51;12;10;
28026;PMS5003;15344;52.342;-1.290;2023-02-28T02:40:16;12;12;
28026;PMS5003;15344;52.342;-1.290;2023-02-28T02:42:49;17;14;
28026;PMS5003;15344;52.342;-1.290;2023-02-28T02:45:07;20;18;
28026;PMS5003;15344;52.342;-1.290;2023-02-28T02:47:32;12;10;
28026;PMS5003;15344;52.342;-1.290;2023-02-28T02:49:57;12;11;
28026;PMS5003;15344;52.342;-1.290;2023-02-28T02:52:24;15;13;
28026;PMS5003;15344;52.342;-1.290;2023-02-28T02:54:48;14;12;
28026;PMS5003;15344;52.342;-1.290;2023-02-28T02:57:15;15;14;
28026;PMS5003;15344;52.342;-1.290;2023-02-28T02:59:39;16;15;
28026;PMS5003;15344;52.342;-1.290;2023-02-28T03:02:06;13;13;
28026;PMS5003;15344;52.342;-1.290;2023-02-28T03:04:30;14;13;
28026;PMS5003;15344;52.342;-1.290;2023-02-28T03:06:55;16;14;
28026;PMS5003;15344;52.342;-1.290;2023-02-28T03:09:21;13;12;
28026;PMS5003;15344;52.342;-1.290;2023-02-28T03:11:46;13;12;
28026;PMS5003;15344;52.342;-1.290;2023-02-28T03:16:42;14;11;
28026;PMS5003;15344;52.342;-1.290;2023-02-28T03:19:04;12;11;
28026;PMS5003;15344;52.342;-1.290;2023-02-28T03:21:29;19;16;
28026;PMS5003;15344;52.342;-1.290;2023-02-28T03:23:54;13;11;
28026;PMS5003;15344;52.342;-1.290;2023-02-28T03:26:19;12;10;
28026;PMS5003;15344;52.342;-1.290;2023-02-28T03:28:46;11;10;
28026;PMS5003;15344;52.342;-1.290;2023-02-28T03:31:10;11;9;
28026;PMS5003;15344;52.342;-1.290;2023-02-28T03:33:36;14;10;
28026;PMS5003;15344;52.342;-1.290;2023-02-28T03:36:07;10;7;
28026;PMS5003;15344;52.342;-1.290;2023-02-28T03:38:28;12;10;
28026;PMS5003;15344;52.342;-1.290;2023-02-28T03:40:53;10;10;
28026;PMS5003;15344;52.342;-1.290;2023-02-28T03:43:19;10;9;
28026;PMS5003;15344;52.342;-1.290;2023-02-28T03:45:42;9;9;
28026;PMS5003;15344;52.342;-1.290;2023-02-28T03:48:08;11;8;
28026;PMS5003;15344;52.342;-1.290;2023-02-28T03:50:34;10;9;
28026;PMS5003;15344;52.342;-1.290;2023-02-28T03:53:00;7;7;
28026;PMS5003;15344;52.342;-1.290;2023-02-28T03:55:23;12;8;
28026;PMS5003;15344;52.342;-1.290;2023-02-28T03:57:52;6;6;
28026;PMS5003;15344;52.342;-1.290;2023-02-28T04:00:16;11;8;
28026;PMS5003;15344;52.342;-1.290;2023-02-28T04:02:40;9;7;
28026;PMS5003;15344;52.342;-1.290;2023-02-28T04:05:05;9;7;
28026;PMS5003;15344;52.342;-1.290;2023-02-28T04:07:31;9;9;
28026;PMS5003;15344;52.342;-1.290;2023-02-28T04:09:57;10;6;
28026;PMS5003;15344;52.342;-1.290;2023-02-28T04:12:22;8;7;
28026;PMS5003;15344;52.342;-1.290;2023-02-28T04:14:47;8;8;
28026;PMS5003;15344;52.342;-1.290;2023-02-28T04:17:13;9;7;
28026;PMS5003;15344;52.342;-1.290;2023-02-28T04:19:38;7;7;
28026;PMS5003;15344;52.342;-1.290;2023-02-28T04:22:04;12;12;
28026;PMS5003;15344;52.342;-1.290;2023-02-28T04:24:29;8;7;
28026;PMS5003;15344;52.342;-1.290;2023-02-28T04:26:55;10;8;
28026;PMS5003;15344;52.342;-1.290;2023-02-28T04:29:21;11;10;
28026;PMS5003;15344;52.342;-1.290;2023-02-28T04:31:45;11;11;
28026;PMS5003;15344;52.342;-1.290;2023-02-28T04:34:11;18;12;
28026;PMS5003;15344;52.342;-1.290;2023-02-28T04:36:37;14;11;
28026;PMS5003;15344;52.342;-1.290;2023-02-28T04:39:02;15;11;
28026;PMS5003;15344;52.342;-1.290;2023-02-28T04:41:27;11;11;
28026;PMS5003;15344;52.342;-1.290;2023-02-28T04:43:53;15;12;
28026;PMS5003;15344;52.342;-1.290;2023-02-28T04:46:18;12;10;
28026;PMS5003;15344;52.342;-1.290;2023-02-28T04:48:44;16;12;
28026;PMS5003;15344;52.342;-1.290;2023-02-28T04:51:11;13;12;
28026;PMS5003;15344;52.342;-1.290;2023-02-28T04:53:35;16;15;
28026;PMS5003;15344;52.342;-1.290;2023-02-28T04:56:00;13;12;
28026;PMS5003;15344;52.342;-1.290;2023-02-28T04:58:25;20;15;
28026;PMS5003;15344;52.342;-1.290;2023-02-28T05:00:51;18;17;
28026;PMS5003;15344;52.342;-1.290;2023-02-28T05:03:17;16;15;
28026;PMS5003;15344;52.342;-1.290;2023-02-28T05:05:42;18;14;
28026;PMS5003;15344;52.342;-1.290;2023-02-28T05:08:07;20;16;
28026;PMS5003;15344;52.342;-1.290;2023-02-28T05:10:33;16;16;
28026;PMS5003;15344;52.342;-1.290;2023-02-28T05:12:59;19;17;
28026;PMS5003;15344;52.342;-1.290;2023-02-28T05:15:24;14;14;
28026;PMS5003;15344;52.342;-1.290;2023-02-28T05:17:49;14;12;
28026;PMS5003;15344;52.342;-1.290;2023-02-28T05:20:15;14;12;
28026;PMS5003;15344;52.342;-1.290;2023-02-28T05:22:40;12;11;
28026;PMS5003;15344;52.342;-1.290;2023-02-28T05:25:06;5;5;
28026;PMS5003;15344;52.342;-1.290;2023-02-28T05:27:31;10;7;
28026;PMS5003;15344;52.342;-1.290;2023-02-28T05:29:56;9;9;
28026;PMS5003;15344;52.342;-1.290;2023-02-28T05:32:22;7;7;
28026;PMS5003;15344;52.342;-1.290;2023-02-28T05:34:47;11;8;
28026;PMS5003;15344;52.342;-1.290;2023-02-28T05:37:12;9;7;
28026;PMS5003;15344;52.342;-1.290;2023-02-28T05:39:38;9;7;
28026;PMS5003;15344;52.342;-1.290;2023-02-28T05:42:03;8;6;
28026;PMS5003;15344;52.342;-1.290;2023-02-28T05:44:29;7;7;
28026;PMS5003;15344;52.342;-1.290;2023-02-28T05:46:54;9;8;
28026;PMS5003;15344;52.342;-1.290;2023-02-28T05:49:20;5;5;
28026;PMS5003;15344;52.342;-1.290;2023-02-28T05:51:46;5;5;
28026;PMS5003;15344;52.342;-1.290;2023-02-28T05:54:11;11;8;
28026;PMS5003;15344;52.342;-1.290;2023-02-28T05:56:36;8;7;
28026;PMS5003;15344;52.342;-1.290;2023-02-28T05:59:01;7;7;
28026;PMS5003;15344;52.342;-1.290;2023-02-28T06:01:31;7;5;
28026;PMS5003;15344;52.342;-1.290;2023-02-28T06:03:53;5;5;
28026;PMS5003;15344;52.342;-1.290;2023-02-28T06:06:18;6;6;
28026;PMS5003;15344;52.342;-1.290;2023-02-28T06:08:44;5;5;
28026;PMS5003;15344;52.342;-1.290;2023-02-28T06:11:09;8;6;
28026;PMS5003;15344;52.342;-1.290;2023-02-28T06:13:35;8;4;
28026;PMS5003;15344;52.342;-1.290;2023-02-28T06:16:00;5;5;
28026;PMS5003;15344;52.342;-1.290;2023-02-28T06:18:26;5;4;
28026;PMS5003;15344;52.342;-1.290;2023-02-28T06:20:52;7;6;
28026;PMS5003;15344;52.342;-1.290;2023-02-28T06:23:17;8;6;
28026;PMS5003;15344;52.342;-1.290;2023-02-28T06:25:44;5;5;
28026;PMS5003;15344;52.342;-1.290;2023-02-28T06:28:08;4;4;
28026;PMS5003;15344;52.342;-1.290;2023-02-28T06:30:33;5;4;
28026;PMS5003;15344;52.342;-1.290;2023-02-28T06:32:59;5;4;
28026;PMS5003;15344;52.342;-1.290;2023-02-28T06:35:24;8;5;
28026;PMS5003;15344;52.342;-1.290;2023-02-28T06:37:50;7;5;
28026;PMS5003;15344;52.342;-1.290;2023-02-28T06:40:16;4;4;
28026;PMS5003;15344;52.342;-1.290;2023-02-28T06:42:41;10;8;
28026;PMS5003;15344;52.342;-1.290;2023-02-28T06:45:07;4;4;
28026;PMS5003;15344;52.342;-1.290;2023-02-28T06:47:32;6;6;
28026;PMS5003;15344;52.342;-1.290;2023-02-28T06:49:58;6;5;
28026;PMS5003;15344;52.342;-1.290;2023-02-28T06:52:22;6;6;
28026;PMS5003;15344;52.342;-1.290;2023-02-28T06:54:48;10;7;
28026;PMS5003;15344;52.342;-1.290;2023-02-28T06:57:13;8;5;
28026;PMS5003;15344;52.342;-1.290;2023-02-28T06:59:39;8;8;
28026;PMS5003;15344;52.342;-1.290;2023-02-28T07:02:05;7;7;
28026;PMS5003;15344;52.342;-1.290;2023-02-28T07:04:30;7;6;
28026;PMS5003;15344;52.342;-1.290;2023-02-28T07:06:55;5;5;
28026;PMS5003;15344;52.342;-1.290;2023-02-28T07:09:21;8;6;
28026;PMS5003;15344;52.342;-1.290;2023-02-28T07:11:47;12;6;
28026;PMS5003;15344;52.342;-1.290;2023-02-28T07:14:12;6;6;
28026;PMS5003;15344;52.342;-1.290;2023-02-28T07:16:38;8;6;
28026;PMS5003;15344;52.342;-1.290;2023-02-28T07:19:03;9;6;
28026;PMS5003;15344;52.342;-1.290;2023-02-28T07:21:29;11;8;
28026;PMS5003;15344;52.342;-1.290;2023-02-28T07:23:55;9;8;
28026;PMS5003;15344;52.342;-1.290;2023-02-28T07:26:20;11;9;
28026;PMS5003;15344;52.342;-1.290;2023-02-28T07:28:46;10;10;
28026;PMS5003;15344;52.342;-1.290;2023-02-28T07:31:10;9;8;
28026;PMS5003;15344;52.342;-1.290;2023-02-28T07:33:36;13;11;
28026;PMS5003;15344;52.342;-1.290;2023-02-28T07:36:02;13;11;
28026;PMS5003;15344;52.342;-1.290;2023-02-28T07:38:27;18;13;
28026;PMS5003;15344;52.342;-1.290;2023-02-28T07:40:52;23;14;
28026;PMS5003;15344;52.342;-1.290;2023-02-28T07:43:18;14;14;
28026;PMS5003;15344;52.342;-1.290;2023-02-28T07:45:43;19;17;
28026;PMS5003;15344;52.342;-1.290;2023-02-28T07:48:08;21;19;
28026;PMS5003;15344;52.342;-1.290;2023-02-28T07:50:34;23;19;
28026;PMS5003;15344;52.342;-1.290;2023-02-28T07:53:00;20;18;
28026;PMS5003;15344;52.342;-1.290;2023-02-28T07:55:25;24;21;
28026;PMS5003;15344;52.342;-1.290;2023-02-28T07:57:51;19;16;
28026;PMS5003;15344;52.342;-1.290;2023-02-28T08:00:16;24;20;
28026;PMS5003;15344;52.342;-1.290;2023-02-28T08:02:42;33;23;
28026;PMS5003;15344;52.342;-1.290;2023-02-28T08:05:07;28;23;
28026;PMS5003;15344;52.342;-1.290;2023-02-28T08:07:33;34;24;
28026;PMS5003;15344;52.342;-1.290;2023-02-28T08:09:58;29;23;
28026;PMS5003;15344;52.342;-1.290;2023-02-28T08:12:24;37;21;
28026;PMS5003;15344;52.342;-1.290;2023-02-28T08:14:49;27;22;
28026;PMS5003;15344;52.342;-1.290;2023-02-28T08:17:15;35;28;
28026;PMS5003;15344;52.342;-1.290;2023-02-28T08:19:40;26;21;
28026;PMS5003;15344;52.342;-1.290;2023-02-28T08:22:06;31;25;
28026;PMS5003;15344;52.342;-1.290;2023-02-28T08:24:31;35;28;
28026;PMS5003;15344;52.342;-1.290;2023-02-28T08:26:57;36;25;
28026;PMS5003;15344;52.342;-1.290;2023-02-28T08:29:22;27;22;
28026;PMS5003;15344;52.342;-1.290;2023-02-28T08:31:47;25;22;
28026;PMS5003;15344;52.342;-1.290;2023-02-28T08:34:13;29;23;
28026;PMS5003;15344;52.342;-1.290;2023-02-28T08:36:38;36;29;
28026;PMS5003;15344;52.342;-1.290;2023-02-28T08:39:03;25;24;
28026;PMS5003;15344;52.342;-1.290;2023-02-28T08:41:28;27;22;
28026;PMS5003;15344;52.342;-1.290;2023-02-28T08:43:53;29;22;
28026;PMS5003;15344;52.342;-1.290;2023-02-28T08:46:19;27;22;
28026;PMS5003;15344;52.342;-1.290;2023-02-28T08:48:44;34;24;
28026;PMS5003;15344;52.342;-1.290;2023-02-28T08:51:10;25;22;
28026;PMS5003;15344;52.342;-1.290;2023-02-28T08:53:35;32;27;
28026;PMS5003;15344;52.342;-1.290;2023-02-28T08:56:02;29;22;
28026;PMS5003;15344;52.342;-1.290;2023-02-28T08:58:26;28;25;
28026;PMS5003;15344;52.342;-1.290;2023-02-28T09:00:51;30;20;
28026;PMS5003;15344;52.342;-1.290;2023-02-28T09:03:17;27;23;
28026;PMS5003;15344;52.342;-1.290;2023-02-28T09:08:08;27;22;
28026;PMS5003;15344;52.342;-1.290;2023-02-28T09:10:34;18;16;
28026;PMS5003;15344;52.342;-1.290;2023-02-28T09:12:59;26;20;
28026;PMS5003;15344;52.342;-1.290;2023-02-28T09:15:24;19;17;
28026;PMS5003;15344;52.342;-1.290;2023-02-28T09:17:50;25;18;
28026;PMS5003;15344;52.342;-1.290;2023-02-28T09:20:15;29;26;
28026;PMS5003;15344;52.342;-1.290;2023-02-28T09:22:41;23;21;
28026;PMS5003;15344;52.342;-1.290;2023-02-28T09:25:06;26;24;
28026;PMS5003;15344;52.342;-1.290;2023-02-28T09:27:31;20;16;
28026;PMS5003;15344;52.342;-1.290;2023-02-28T09:29:57;24;21;
28026;PMS5003;15344;52.342;-1.290;2023-02-28T09:32:23;26;22;
28026;PMS5003;15344;52.342;-1.290;2023-02-28T09:34:48;23;19;
28026;PMS5003;15344;52.342;-1.290;2023-02-28T09:37:13;28;24;
28026;PMS5003;15344;52.342;-1.290;2023-02-28T09:39:39;27;22;
28026;PMS5003;15344;52.342;-1.290;2023-02-28T09:42:04;25;18;
28026;PMS5003;15344;52.342;-1.290;2023-02-28T09:44:31;25;21;
28026;PMS5003;15344;52.342;-1.290;2023-02-28T09:46:55;26;21;
28026;PMS5003;15344;52.342;-1.290;2023-02-28T09:49:22;21;19;
28026;PMS5003;15344;52.342;-1.290;2023-02-28T09:51:47;24;20;
28026;PMS5003;15344;52.342;-1.290;2023-02-28T09:54:12;21;17;
28026;PMS5003;15344;52.342;-1.290;2023-02-28T09:56:37;24;20;
28026;PMS5003;15344;52.342;-1.290;2023-02-28T09:59:02;23;23;
28026;PMS5003;15344;52.342;-1.290;2023-02-28T10:01:29;21;21;
28026;PMS5003;15344;52.342;-1.290;2023-02-28T10:03:54;23;16;
28026;PMS5003;15344;52.342;-1.290;2023-02-28T10:06:18;30;23;
28026;PMS5003;15344;52.342;-1.290;2023-02-28T10:08:45;21;19;
28026;PMS5003;15344;52.342;-1.290;2023-02-28T10:11:09;24;20;
28026;PMS5003;15344;52.342;-1.290;2023-02-28T10:13:35;27;21;
28026;PMS5003;15344;52.342;-1.290;2023-02-28T10:16:01;23;19;
28026;PMS5003;15344;52.342;-1.290;2023-02-28T10:18:28;21;18;
28026;PMS5003;15344;52.342;-1.290;2023-02-28T10:20:51;20;19;
28026;PMS5003;15344;52.342;-1.290;2023-02-28T10:23:19;23;20;
28026;PMS5003;15344;52.342;-1.290;2023-02-28T10:25:44;29;22;
28026;PMS5003;15344;52.342;-1.290;2023-02-28T10:28:09;22;17;
28026;PMS5003;15344;52.342;-1.290;2023-02-28T10:30:34;20;20;
28026;PMS5003;15344;52.342;-1.290;2023-02-28T10:32:59;22;18;
28026;PMS5003;15344;52.342;-1.290;2023-02-28T10:35:26;23;19;
28026;PMS5003;15344;52.342;-1.290;2023-02-28T10:37:51;16;13;
28026;PMS5003;15344;52.342;-1.290;2023-02-28T10:42:41;19;17;
28026;PMS5003;15344;52.342;-1.290;2023-02-28T10:45:09;11;9;
28026;PMS5003;15344;52.342;-1.290;2023-02-28T10:47:32;13;11;
28026;PMS5003;15344;52.342;-1.290;2023-02-28T10:49:56;15;13;
28026;PMS5003;15344;52.342;-1.290;2023-02-28T10:54:47;9;8;
28026;PMS5003;15344;52.342;-1.290;2023-02-28T10:57:16;14;8;
28026;PMS5003;15344;52.342;-1.290;2023-02-28T10:59:37;12;9;
28026;PMS5003;15344;52.342;-1.290;2023-02-28T11:02:07;12;10;
28026;PMS5003;15344;52.342;-1.290;2023-02-28T11:04:33;10;8;
28026;PMS5003;15344;52.342;-1.290;2023-02-28T11:06:56;10;10;
28026;PMS5003;15344;52.342;-1.290;2023-02-28T11:09:22;13;12;
28026;PMS5003;15344;52.342;-1.290;2023-02-28T11:11:46;11;9;
28026;PMS5003;15344;52.342;-1.290;2023-02-28T11:14:16;14;12;
28026;PMS5003;15344;52.342;-1.290;2023-02-28T11:16:37;13;8;
28026;PMS5003;15344;52.342;-1.290;2023-02-28T11:19:02;13;9;
28026;PMS5003;15344;52.342;-1.290;2023-02-28T11:21:28;16;12;
28026;PMS5003;15344;52.342;-1.290;2023-02-28T11:23:54;9;7;
28026;PMS5003;15344;52.342;-1.290;2023-02-28T11:28:43;9;9;
28026;PMS5003;15344;52.342;-1.290;2023-02-28T11:36:00;11;8;
28026;PMS5003;15344;52.342;-1.290;2023-02-28T11:38:24;14;12;
28026;PMS5003;15344;52.342;-1.290;2023-02-28T11:40:53;10;9;
28026;PMS5003;15344;52.342;-1.290;2023-02-28T11:43:20;9;9;
28026;PMS5003;15344;52.342;-1.290;2023-02-28T11:45:44;13;12;
28026;PMS5003;15344;52.342;-1.290;2023-02-28T11:48:08;15;11;
28026;PMS5003;15344;52.342;-1.290;2023-02-28T11:50:38;6;6;
28026;PMS5003;15344;52.342;-1.290;2023-02-28T11:52:57;12;10;
28026;PMS5003;15344;52.342;-1.290;2023-02-28T11:55:24;12;9;
28026;PMS5003;15344;52.342;-1.290;2023-02-28T11:57:51;9;9;
28026;PMS5003;15344;52.342;-1.290;2023-02-28T12:00:18;15;12;
28026;PMS5003;15344;52.342;-1.290;2023-02-28T12:02:41;10;10;
28026;PMS5003;15344;52.342;-1.290;2023-02-28T12:05:08;11;11;
28026;PMS5003;15344;52.342;-1.290;2023-02-28T12:07:31;9;8;
28026;PMS5003;15344;52.342;-1.290;2023-02-28T12:09:56;9;7;
28026;PMS5003;15344;52.342;-1.290;2023-02-28T12:12:22;13;7;
28026;PMS5003;15344;52.342;-1.290;2023-02-28T12:14:48;8;5;
28026;PMS5003;15344;52.342;-1.290;2023-02-28T12:17:13;2;2;
28026;PMS5003;15344;52.342;-1.290;2023-02-28T12:19:38;3;3;
28026;PMS5003;15344;52.342;-1.290;2023-02-28T12:22:12;3;3;
28026;PMS5003;15344;52.342;-1.290;2023-02-28T12:24:31;4;4;
28026;PMS5003;15344;52.342;-1.290;2023-02-28T12:26:52;3;3;
28026;PMS5003;15344;52.342;-1.290;2023-02-28T12:29:19;4;4;
28026;PMS5003;15344;52.342;-1.290;2023-02-28T12:31:45;4;4;
28026;PMS5003;15344;52.342;-1.290;2023-02-28T12:34:10;5;4;
28026;PMS5003;15344;52.342;-1.290;2023-02-28T12:36:34;4;4;
28026;PMS5003;15344;52.342;-1.290;2023-02-28T12:39:00;5;4;
28026;PMS5003;15344;52.342;-1.290;2023-02-28T12:41:27;7;5;
28026;PMS5003;15344;52.342;-1.290;2023-02-28T12:43:52;8;4;
28026;PMS5003;15344;52.342;-1.290;2023-02-28T12:46:17;6;6;
28026;PMS5003;15344;52.342;-1.290;2023-02-28T12:48:42;6;4;
28026;PMS5003;15344;52.342;-1.290;2023-02-28T12:51:07;5;5;
28026;PMS5003;15344;52.342;-1.290;2023-02-28T12:53:35;10;7;
28026;PMS5003;15344;52.342;-1.290;2023-02-28T12:56:02;8;6;
28026;PMS5003;15344;52.342;-1.290;2023-02-28T12:58:26;6;5;
28026;PMS5003;15344;52.342;-1.290;2023-02-28T13:00:55;6;5;
28026;PMS5003;15344;52.342;-1.290;2023-02-28T13:10:37;6;6;
28026;PMS5003;15344;52.342;-1.290;2023-02-28T13:12:56;7;7;
28026;PMS5003;15344;52.342;-1.290;2023-02-28T13:15:23;5;5;
28026;PMS5003;15344;52.342;-1.290;2023-02-28T13:17:48;8;5;
28026;PMS5003;15344;52.342;-1.290;2023-02-28T13:20:15;9;7;
28026;PMS5003;15344;52.342;-1.290;2023-02-28T13:22:40;7;7;
28026;PMS5003;15344;52.342;-1.290;2023-02-28T13:27:32;7;7;
28026;PMS5003;15344;52.342;-1.290;2023-02-28T13:29:55;8;6;
28026;PMS5003;15344;52.342;-1.290;2023-02-28T13:34:49;7;5;
28026;PMS5003;15344;52.342;-1.290;2023-02-28T13:44:28;7;7;
28026;PMS5003;15344;52.342;-1.290;2023-02-28T13:49:19;10;9;
28026;PMS5003;15344;52.342;-1.290;2023-02-28T13:51:45;8;7;
28026;PMS5003;15344;52.342;-1.290;2023-02-28T13:54:14;8;7;
28026;PMS5003;15344;52.342;-1.290;2023-02-28T13:56:39;10;6;
28026;PMS5003;15344;52.342;-1.290;2023-02-28T13:59:02;10;6;
28026;PMS5003;15344;52.342;-1.290;2023-02-28T14:01:30;10;8;
28026;PMS5003;15344;52.342;-1.290;2023-02-28T14:03:58;8;7;
28026;PMS5003;15344;52.342;-1.290;2023-02-28T14:06:18;9;8;
28026;PMS5003;15344;52.342;-1.290;2023-02-28T14:08:51;7;6;
28026;PMS5003;15344;52.342;-1.290;2023-02-28T14:11:09;5;5;
28026;PMS5003;15344;52.342;-1.290;2023-02-28T14:15:58;8;6;
28026;PMS5003;15344;52.342;-1.290;2023-02-28T14:18:25;8;8;
28026;PMS5003;15344;52.342;-1.290;2023-02-28T14:20:49;8;7;
28026;PMS5003;15344;52.342;-1.290;2023-02-28T14:23:16;7;6;
28026;PMS5003;15344;52.342;-1.290;2023-02-28T14:25:40;7;6;
28026;PMS5003;15344;52.342;-1.290;2023-02-28T14:28:08;6;6;
28026;PMS5003;15344;52.342;-1.290;2023-02-28T14:32:59;5;4;
28026;PMS5003;15344;52.342;-1.290;2023-02-28T14:35:27;7;7;
28026;PMS5003;15344;52.342;-1.290;2023-02-28T14:37:46;5;5;
28026;PMS5003;15344;52.342;-1.290;2023-02-28T14:40:12;4;4;
28026;PMS5003;15344;52.342;-1.290;2023-02-28T14:42:37;3;3;
28026;PMS5003;15344;52.342;-1.290;2023-02-28T14:45:03;8;5;
28026;PMS5003;15344;52.342;-1.290;2023-02-28T14:47:28;5;5;
28026;PMS5003;15344;52.342;-1.290;2023-02-28T14:49:54;3;3;
28026;PMS5003;15344;52.342;-1.290;2023-02-28T14:52:20;2;2;
28026;PMS5003;15344;52.342;-1.290;2023-02-28T14:54:46;4;4;
28026;PMS5003;15344;52.342;-1.290;2023-02-28T14:59:35;6;5;
28026;PMS5003;15344;52.342;-1.290;2023-02-28T15:04:26;5;4;
28026;PMS5003;15344;52.342;-1.290;2023-02-28T15:09:17;5;5;
28026;PMS5003;15344;52.342;-1.290;2023-02-28T15:11:45;6;6;
28026;PMS5003;15344;52.342;-1.290;2023-02-28T15:14:13;6;4;
28026;PMS5003;15344;52.342;-1.290;2023-02-28T15:16:35;6;6;
28026;PMS5003;15344;52.342;-1.290;2023-02-28T15:19:00;5;5;
28026;PMS5003;15344;52.342;-1.290;2023-02-28T15:21:25;4;4;
28026;PMS5003;15344;52.342;-1.290;2023-02-28T15:23:51;4;4;
28026;PMS5003;15344;52.342;-1.290;2023-02-28T15:26:16;3;2;
28026;PMS5003;15344;52.342;-1.290;2023-02-28T15:28:41;4;4;
28026;PMS5003;15344;52.342;-1.290;2023-02-28T15:33:33;3;3;
28026;PMS5003;15344;52.342;-1.290;2023-02-28T15:38:24;5;4;
28026;PMS5003;15344;52.342;-1.290;2023-02-28T15:40:50;6;4;
28026;PMS5003;15344;52.342;-1.290;2023-02-28T15:43:15;8;6;
28026;PMS5003;15344;52.342;-1.290;2023-02-28T15:45:41;7;6;
28026;PMS5003;15344;52.342;-1.290;2023-02-28T15:48:05;5;5;
28026;PMS5003;15344;52.342;-1.290;2023-02-28T15:50:30;6;6;
28026;PMS5003;15344;52.342;-1.290;2023-02-28T15:52:56;7;5;
28026;PMS5003;15344;52.342;-1.290;2023-02-28T15:55:22;8;6;
28026;PMS5003;15344;52.342;-1.290;2023-02-28T15:57:48;7;6;
28026;PMS5003;15344;52.342;-1.290;2023-02-28T16:00:13;8;7;
28026;PMS5003;15344;52.342;-1.290;2023-02-28T16:02:38;7;6;
28026;PMS5003;15344;52.342;-1.290;2023-02-28T16:07:29;11;11;
28026;PMS5003;15344;52.342;-1.290;2023-02-28T16:09:54;14;11;
28026;PMS5003;15344;52.342;-1.290;2023-02-28T16:12:20;12;12;
28026;PMS5003;15344;52.342;-1.290;2023-02-28T16:14:45;11;11;
28026;PMS5003;15344;52.342;-1.290;2023-02-28T16:17:13;13;12;
28026;PMS5003;15344;52.342;-1.290;2023-02-28T16:19:35;13;10;
28026;PMS5003;15344;52.342;-1.290;2023-02-28T16:22:01;9;9;
28026;PMS5003;15344;52.342;-1.290;2023-02-28T16:24:27;8;8;
28026;PMS5003;15344;52.342;-1.290;2023-02-28T16:26:53;10;9;
28026;PMS5003;15344;52.342;-1.290;2023-02-28T16:29:19;9;6;
28026;PMS5003;15344;52.342;-1.290;2023-02-28T16:31:43;6;6;
28026;PMS5003;15344;52.342;-1.290;2023-02-28T16:34:08;8;8;
28026;PMS5003;15344;52.342;-1.290;2023-02-28T16:36:34;6;5;
28026;PMS5003;15344;52.342;-1.290;2023-02-28T16:38:59;7;7;
28026;PMS5003;15344;52.342;-1.290;2023-02-28T16:41:25;11;7;
28026;PMS5003;15344;52.342;-1.290;2023-02-28T16:43:51;8;8;
28026;PMS5003;15344;52.342;-1.290;2023-02-28T16:46:16;8;5;
28026;PMS5003;15344;52.342;-1.290;2023-02-28T16:48:41;6;6;
28026;PMS5003;15344;52.342;-1.290;2023-02-28T16:51:10;4;4;
28026;PMS5003;15344;52.342;-1.290;2023-02-28T16:53:32;5;5;
28026;PMS5003;15344;52.342;-1.290;2023-02-28T16:55:58;4;4;
28026;PMS5003;15344;52.342;-1.290;2023-02-28T16:58:23;6;6;
28026;PMS5003;15344;52.342;-1.290;2023-02-28T17:00:49;6;6;
28026;PMS5003;15344;52.342;-1.290;2023-02-28T17:03:19;3;3;
28026;PMS5003;15344;52.342;-1.290;2023-02-28T17:05:40;5;5;
28026;PMS5003;15344;52.342;-1.290;2023-02-28T17:08:06;7;5;
28026;PMS5003;15344;52.342;-1.290;2023-02-28T17:10:31;8;5;